TAF Flughafenprognosen

Nürnberg TAF, ausgegeben Mo 16.12. 00:00

TAF EDDN 152300Z 1600/1624 14006KT 9999 SCT040
GültigkeitVonBisWind in Beaufort
(Knoten)
Wolken
(Meter über Grund)
Sichtweite
(Meter)
Wettererscheinung
Grundvorhersage Mo 16.12. 01:00 Di 17.12. 01:00 SO 2 (6) Wolkig (1200) >= 10000  

 

Hof TAF, ausgegeben So 15.12. 18:00

TAF EDQM 151700Z 1518/1603 22007KT 9999 SCT005 BKN025 TEMPO 1518/1522 4000 SHRA BKN008 BKN012TCU
GültigkeitVonBisWind in Beaufort
(Knoten)
Wolken
(Meter über Grund)
Sichtweite
(Meter)
Wettererscheinung
Grundvorhersage So 15.12. 19:00 Mo 16.12. 04:00 SW 3 (7) Stark bewölkt (760)
Wolkig (150)
>= 10000  
Vorübergehend So 15.12. 19:00 So 15.12. 23:00   Stark bewölkt (370)
Stark bewölkt (240)
4000 Regen-Schauer

 

Erfurt-Bindersleben TAF, ausgegeben Mo 16.12. 00:00

TAF EDDE 152300Z 1600/1624 19009KT CAVOK
GültigkeitVonBisWind in Beaufort
(Knoten)
Wolken
(Meter über Grund)
Sichtweite
(Meter)
Wettererscheinung
Grundvorhersage Mo 16.12. 01:00 Di 17.12. 01:00 S 3 (9)      

 

Augsburg TAF, ausgegeben So 15.12. 18:00

TAF EDMA 151700Z 1518/1603 33006KT 9999 BKN035 BECMG 1518/1520 14004KT
GültigkeitVonBisWind in Beaufort
(Knoten)
Wolken
(Meter über Grund)
Sichtweite
(Meter)
Wettererscheinung
Grundvorhersage So 15.12. 19:00 Mo 16.12. 04:00 NNW 2 (6) Stark bewölkt (1100) >= 10000  
Übergang zu So 15.12. 19:00 So 15.12. 21:00 SO 2 (4)      

 

Frankfurt TAF, ausgegeben Mo 16.12. 00:00

TAF EDDF 152300Z 1600/1706 17005KT 9999 FEW025 BECMG 1600/1603 BKN025 PROB30 TEMPO 1600/1606 4000 -RADZ BKN014 BECMG 1606/1609 SCT025 BECMG 1618/1621 08004KT
GültigkeitVonBisWind in Beaufort
(Knoten)
Wolken
(Meter über Grund)
Sichtweite
(Meter)
Wettererscheinung
Grundvorhersage Mo 16.12. 01:00 Di 17.12. 07:00 S 2 (5) Leicht bewölkt (760) >= 10000  
Übergang zu Mo 16.12. 01:00 Mo 16.12. 04:00   Stark bewölkt (760)    
Vorübergehend
(Wahrscheinlichkeit 30 %)
Mo 16.12. 01:00 Mo 16.12. 07:00   Stark bewölkt (430) 4000 Regen/Nieselregen (schwach)
Übergang zu Mo 16.12. 07:00 Mo 16.12. 10:00   Wolkig (760)    
Übergang zu Mo 16.12. 19:00 Mo 16.12. 22:00 O 2 (4)      

 

Stuttgart TAF, ausgegeben Mo 16.12. 00:00

TAF EDDS 152300Z 1600/1624 VRB03KT 9999 FEW035
GültigkeitVonBisWind in Beaufort
(Knoten)
Wolken
(Meter über Grund)
Sichtweite
(Meter)
Wettererscheinung
Grundvorhersage Mo 16.12. 01:00 Di 17.12. 01:00 Uml 2 (3) Leicht bewölkt (1100) >= 10000  

 

München TAF, ausgegeben Mo 16.12. 00:00

TAF EDDM 152300Z 1600/1706 10004KT CAVOK
GültigkeitVonBisWind in Beaufort
(Knoten)
Wolken
(Meter über Grund)
Sichtweite
(Meter)
Wettererscheinung
Grundvorhersage Mo 16.12. 01:00 Di 17.12. 07:00 O 2 (4)